sensor_id;sensor_type;location;lat;lon;timestamp;P1;durP1;ratioP1;P2;durP2;ratioP2
51780;SDS011;37844;57.126;24.288;2022-12-10T00:02:01;55.88;;;25.73;;
51780;SDS011;37844;57.126;24.288;2022-12-10T00:04:26;41.97;;;23.92;;
51780;SDS011;37844;57.126;24.288;2022-12-10T00:06:52;43.22;;;22.10;;
51780;SDS011;37844;57.126;24.288;2022-12-10T00:09:18;40.65;;;21.20;;
51780;SDS011;37844;57.126;24.288;2022-12-10T00:11:44;35.70;;;20.70;;
51780;SDS011;37844;57.126;24.288;2022-12-10T00:14:11;40.40;;;20.75;;
51780;SDS011;37844;57.126;24.288;2022-12-10T00:16:38;34.35;;;19.90;;
51780;SDS011;37844;57.126;24.288;2022-12-10T00:19:03;30.52;;;18.27;;
51780;SDS011;37844;57.126;24.288;2022-12-10T00:21:31;38.63;;;19.08;;
51780;SDS011;37844;57.126;24.288;2022-12-10T00:23:58;33.40;;;19.73;;
51780;SDS011;37844;57.126;24.288;2022-12-10T00:26:28;36.10;;;18.02;;
51780;SDS011;37844;57.126;24.288;2022-12-10T00:31:23;29.38;;;17.75;;
51780;SDS011;37844;57.126;24.288;2022-12-10T00:33:52;29.90;;;17.42;;
51780;SDS011;37844;57.126;24.288;2022-12-10T00:36:24;31.60;;;15.85;;
51780;SDS011;37844;57.126;24.288;2022-12-10T00:38:52;29.30;;;15.50;;
51780;SDS011;37844;57.126;24.288;2022-12-10T00:41:18;25.30;;;14.85;;
51780;SDS011;37844;57.126;24.288;2022-12-10T00:43:44;28.40;;;15.40;;
51780;SDS011;37844;57.126;24.288;2022-12-10T00:46:10;27.05;;;15.00;;
51780;SDS011;37844;57.126;24.288;2022-12-10T00:48:37;28.27;;;17.08;;
51780;SDS011;37844;57.126;24.288;2022-12-10T00:51:07;24.40;;;13.82;;
51780;SDS011;37844;57.126;24.288;2022-12-10T00:53:35;27.67;;;16.38;;
51780;SDS011;37844;57.126;24.288;2022-12-10T00:56:02;34.78;;;17.25;;
51780;SDS011;37844;57.126;24.288;2022-12-10T00:58:29;37.80;;;18.02;;
51780;SDS011;37844;57.126;24.288;2022-12-10T01:03:38;33.00;;;17.98;;
51780;SDS011;37844;57.126;24.288;2022-12-10T01:06:08;30.00;;;15.95;;
51780;SDS011;37844;57.126;24.288;2022-12-10T01:08:34;29.27;;;16.85;;
51780;SDS011;37844;57.126;24.288;2022-12-10T01:10:59;26.63;;;14.98;;
51780;SDS011;37844;57.126;24.288;2022-12-10T01:13:25;27.50;;;15.48;;
51780;SDS011;37844;57.126;24.288;2022-12-10T01:15:51;26.27;;;15.65;;
51780;SDS011;37844;57.126;24.288;2022-12-10T01:18:16;22.60;;;13.70;;
51780;SDS011;37844;57.126;24.288;2022-12-10T01:20:42;22.80;;;14.68;;
51780;SDS011;37844;57.126;24.288;2022-12-10T01:23:07;26.20;;;14.32;;
51780;SDS011;37844;57.126;24.288;2022-12-10T01:25:33;25.10;;;14.52;;
51780;SDS011;37844;57.126;24.288;2022-12-10T01:27:58;25.60;;;13.95;;
51780;SDS011;37844;57.126;24.288;2022-12-10T01:30:24;24.73;;;13.75;;
51780;SDS011;37844;57.126;24.288;2022-12-10T01:32:49;24.92;;;13.30;;
51780;SDS011;37844;57.126;24.288;2022-12-10T01:35:15;25.95;;;12.48;;
51780;SDS011;37844;57.126;24.288;2022-12-10T01:37:40;22.30;;;13.57;;
51780;SDS011;37844;57.126;24.288;2022-12-10T01:40:06;25.30;;;12.45;;
51780;SDS011;37844;57.126;24.288;2022-12-10T01:42:32;21.75;;;11.13;;
51780;SDS011;37844;57.126;24.288;2022-12-10T01:44:59;20.30;;;11.57;;
51780;SDS011;37844;57.126;24.288;2022-12-10T01:47:27;20.33;;;11.40;;
51780;SDS011;37844;57.126;24.288;2022-12-10T01:49:53;21.55;;;11.57;;
51780;SDS011;37844;57.126;24.288;2022-12-10T01:52:18;26.17;;;12.05;;
51780;SDS011;37844;57.126;24.288;2022-12-10T01:54:45;25.25;;;14.30;;
51780;SDS011;37844;57.126;24.288;2022-12-10T01:57:21;21.27;;;14.38;;
51780;SDS011;37844;57.126;24.288;2022-12-10T01:59:57;19.25;;;12.30;;
51780;SDS011;37844;57.126;24.288;2022-12-10T02:02:42;20.15;;;10.50;;
51780;SDS011;37844;57.126;24.288;2022-12-10T02:05:24;15.82;;;11.10;;
51780;SDS011;37844;57.126;24.288;2022-12-10T02:13:57;19.25;;;11.07;;
51780;SDS011;37844;57.126;24.288;2022-12-10T02:16:32;16.90;;;11.02;;
51780;SDS011;37844;57.126;24.288;2022-12-10T02:22:05;15.25;;;9.70;;
51780;SDS011;37844;57.126;24.288;2022-12-10T02:24:33;14.80;;;9.15;;
51780;SDS011;37844;57.126;24.288;2022-12-10T02:27:06;15.60;;;9.30;;
51780;SDS011;37844;57.126;24.288;2022-12-10T02:29:39;14.77;;;9.80;;
51780;SDS011;37844;57.126;24.288;2022-12-10T02:32:13;15.68;;;10.02;;
51780;SDS011;37844;57.126;24.288;2022-12-10T02:34:54;13.77;;;8.45;;
51780;SDS011;37844;57.126;24.288;2022-12-10T02:37:24;13.88;;;8.95;;
51780;SDS011;37844;57.126;24.288;2022-12-10T02:39:54;11.00;;;7.68;;
51780;SDS011;37844;57.126;24.288;2022-12-10T02:42:22;14.52;;;9.27;;
51780;SDS011;37844;57.126;24.288;2022-12-10T02:44:51;14.35;;;9.15;;
51780;SDS011;37844;57.126;24.288;2022-12-10T02:47:18;14.05;;;8.52;;
51780;SDS011;37844;57.126;24.288;2022-12-10T02:49:45;13.10;;;9.52;;
51780;SDS011;37844;57.126;24.288;2022-12-10T02:52:16;13.10;;;8.07;;
51780;SDS011;37844;57.126;24.288;2022-12-10T02:54:44;14.30;;;8.95;;
51780;SDS011;37844;57.126;24.288;2022-12-10T02:57:17;15.52;;;8.45;;
51780;SDS011;37844;57.126;24.288;2022-12-10T03:05:26;15.82;;;9.18;;
51780;SDS011;37844;57.126;24.288;2022-12-10T03:10:28;13.00;;;8.00;;
51780;SDS011;37844;57.126;24.288;2022-12-10T03:13:01;14.40;;;9.65;;
51780;SDS011;37844;57.126;24.288;2022-12-10T03:15:33;16.05;;;9.13;;
51780;SDS011;37844;57.126;24.288;2022-12-10T03:18:02;15.30;;;9.75;;
51780;SDS011;37844;57.126;24.288;2022-12-10T03:20:29;16.70;;;9.20;;
51780;SDS011;37844;57.126;24.288;2022-12-10T03:22:57;20.10;;;10.15;;
51780;SDS011;37844;57.126;24.288;2022-12-10T03:25:25;20.08;;;8.80;;
51780;SDS011;37844;57.126;24.288;2022-12-10T03:27:54;15.07;;;9.13;;
51780;SDS011;37844;57.126;24.288;2022-12-10T03:30:20;19.42;;;11.13;;
51780;SDS011;37844;57.126;24.288;2022-12-10T03:32:46;14.48;;;9.25;;
51780;SDS011;37844;57.126;24.288;2022-12-10T03:35:13;16.10;;;8.93;;
51780;SDS011;37844;57.126;24.288;2022-12-10T03:37:41;14.70;;;8.85;;
51780;SDS011;37844;57.126;24.288;2022-12-10T03:40:06;16.60;;;10.63;;
51780;SDS011;37844;57.126;24.288;2022-12-10T03:42:34;17.25;;;10.05;;
51780;SDS011;37844;57.126;24.288;2022-12-10T03:45:01;21.02;;;10.07;;
51780;SDS011;37844;57.126;24.288;2022-12-10T03:47:27;15.63;;;9.80;;
51780;SDS011;37844;57.126;24.288;2022-12-10T03:49:59;14.90;;;8.90;;
51780;SDS011;37844;57.126;24.288;2022-12-10T03:52:24;14.63;;;8.68;;
51780;SDS011;37844;57.126;24.288;2022-12-10T03:54:50;15.60;;;11.52;;
51780;SDS011;37844;57.126;24.288;2022-12-10T03:57:15;23.25;;;9.93;;
51780;SDS011;37844;57.126;24.288;2022-12-10T03:59:41;17.50;;;9.73;;
51780;SDS011;37844;57.126;24.288;2022-12-10T04:02:12;16.05;;;9.32;;
51780;SDS011;37844;57.126;24.288;2022-12-10T04:04:38;19.15;;;9.25;;
51780;SDS011;37844;57.126;24.288;2022-12-10T04:07:03;20.52;;;10.85;;
51780;SDS011;37844;57.126;24.288;2022-12-10T04:09:29;19.38;;;10.05;;
51780;SDS011;37844;57.126;24.288;2022-12-10T04:11:55;16.23;;;10.82;;
51780;SDS011;37844;57.126;24.288;2022-12-10T04:14:24;16.63;;;11.07;;
51780;SDS011;37844;57.126;24.288;2022-12-10T04:17:09;14.63;;;9.68;;
51780;SDS011;37844;57.126;24.288;2022-12-10T04:19:34;16.60;;;10.73;;
51780;SDS011;37844;57.126;24.288;2022-12-10T04:22:00;16.38;;;7.07;;
51780;SDS011;37844;57.126;24.288;2022-12-10T04:24:44;15.15;;;9.10;;
51780;SDS011;37844;57.126;24.288;2022-12-10T04:27:30;15.13;;;8.57;;
51780;SDS011;37844;57.126;24.288;2022-12-10T04:29:58;14.05;;;9.20;;
51780;SDS011;37844;57.126;24.288;2022-12-10T04:32:25;17.25;;;10.88;;
51780;SDS011;37844;57.126;24.288;2022-12-10T04:34:52;17.48;;;10.90;;
51780;SDS011;37844;57.126;24.288;2022-12-10T04:37:18;17.27;;;10.40;;
51780;SDS011;37844;57.126;24.288;2022-12-10T04:39:44;13.57;;;9.23;;
51780;SDS011;37844;57.126;24.288;2022-12-10T04:42:10;14.55;;;8.35;;
51780;SDS011;37844;57.126;24.288;2022-12-10T04:44:36;16.77;;;8.07;;
51780;SDS011;37844;57.126;24.288;2022-12-10T04:47:03;12.40;;;7.95;;
51780;SDS011;37844;57.126;24.288;2022-12-10T04:49:30;16.17;;;9.43;;
51780;SDS011;37844;57.126;24.288;2022-12-10T04:51:55;14.82;;;8.45;;
51780;SDS011;37844;57.126;24.288;2022-12-10T04:54:21;12.95;;;8.57;;
51780;SDS011;37844;57.126;24.288;2022-12-10T04:56:47;13.75;;;8.38;;
51780;SDS011;37844;57.126;24.288;2022-12-10T04:59:12;17.60;;;9.63;;
51780;SDS011;37844;57.126;24.288;2022-12-10T05:01:40;16.35;;;8.90;;
51780;SDS011;37844;57.126;24.288;2022-12-10T05:04:06;17.33;;;10.90;;
51780;SDS011;37844;57.126;24.288;2022-12-10T05:06:34;12.45;;;8.43;;
51780;SDS011;37844;57.126;24.288;2022-12-10T05:09:01;14.07;;;8.90;;
51780;SDS011;37844;57.126;24.288;2022-12-10T05:11:28;13.93;;;8.77;;
51780;SDS011;37844;57.126;24.288;2022-12-10T05:13:55;12.00;;;8.35;;
51780;SDS011;37844;57.126;24.288;2022-12-10T05:16:22;15.73;;;10.00;;
51780;SDS011;37844;57.126;24.288;2022-12-10T05:18:49;16.95;;;10.90;;
51780;SDS011;37844;57.126;24.288;2022-12-10T05:21:17;20.63;;;9.95;;
51780;SDS011;37844;57.126;24.288;2022-12-10T05:23:45;18.70;;;9.98;;
51780;SDS011;37844;57.126;24.288;2022-12-10T05:28:45;17.02;;;9.93;;
51780;SDS011;37844;57.126;24.288;2022-12-10T05:31:14;17.15;;;9.32;;
51780;SDS011;37844;57.126;24.288;2022-12-10T05:33:50;15.02;;;9.55;;
51780;SDS011;37844;57.126;24.288;2022-12-10T05:36:17;15.77;;;9.50;;
51780;SDS011;37844;57.126;24.288;2022-12-10T05:38:44;19.08;;;10.23;;
51780;SDS011;37844;57.126;24.288;2022-12-10T05:41:12;17.48;;;9.65;;
51780;SDS011;37844;57.126;24.288;2022-12-10T05:43:39;19.08;;;10.15;;
51780;SDS011;37844;57.126;24.288;2022-12-10T05:46:06;12.43;;;9.45;;
51780;SDS011;37844;57.126;24.288;2022-12-10T05:48:34;16.30;;;9.00;;
51780;SDS011;37844;57.126;24.288;2022-12-10T05:51:07;15.25;;;10.13;;
51780;SDS011;37844;57.126;24.288;2022-12-10T05:53:34;16.50;;;10.02;;
51780;SDS011;37844;57.126;24.288;2022-12-10T05:56:01;18.30;;;10.15;;
51780;SDS011;37844;57.126;24.288;2022-12-10T05:58:29;14.02;;;9.57;;
51780;SDS011;37844;57.126;24.288;2022-12-10T06:00:55;14.60;;;9.82;;
51780;SDS011;37844;57.126;24.288;2022-12-10T06:03:21;16.08;;;9.70;;
51780;SDS011;37844;57.126;24.288;2022-12-10T06:05:47;17.88;;;10.27;;
51780;SDS011;37844;57.126;24.288;2022-12-10T06:08:12;16.23;;;9.68;;
51780;SDS011;37844;57.126;24.288;2022-12-10T06:10:38;16.40;;;10.27;;
51780;SDS011;37844;57.126;24.288;2022-12-10T06:13:03;17.70;;;10.45;;
51780;SDS011;37844;57.126;24.288;2022-12-10T06:15:30;13.07;;;8.90;;
51780;SDS011;37844;57.126;24.288;2022-12-10T06:17:55;14.30;;;8.85;;
51780;SDS011;37844;57.126;24.288;2022-12-10T06:20:22;21.25;;;10.13;;
51780;SDS011;37844;57.126;24.288;2022-12-10T06:22:48;16.98;;;11.00;;
51780;SDS011;37844;57.126;24.288;2022-12-10T06:25:14;15.45;;;9.52;;
51780;SDS011;37844;57.126;24.288;2022-12-10T06:27:39;15.73;;;10.32;;
51780;SDS011;37844;57.126;24.288;2022-12-10T06:30:05;15.10;;;8.68;;
51780;SDS011;37844;57.126;24.288;2022-12-10T06:32:31;25.23;;;10.45;;
51780;SDS011;37844;57.126;24.288;2022-12-10T06:34:56;18.23;;;10.77;;
51780;SDS011;37844;57.126;24.288;2022-12-10T06:37:22;16.52;;;9.20;;
51780;SDS011;37844;57.126;24.288;2022-12-10T06:39:49;18.05;;;10.23;;
51780;SDS011;37844;57.126;24.288;2022-12-10T06:42:16;16.67;;;9.98;;
51780;SDS011;37844;57.126;24.288;2022-12-10T06:44:41;21.38;;;12.05;;
51780;SDS011;37844;57.126;24.288;2022-12-10T06:47:06;15.55;;;10.27;;
51780;SDS011;37844;57.126;24.288;2022-12-10T06:49:32;22.15;;;12.55;;
51780;SDS011;37844;57.126;24.288;2022-12-10T06:51:57;22.83;;;11.27;;
51780;SDS011;37844;57.126;24.288;2022-12-10T06:54:23;18.15;;;12.23;;
51780;SDS011;37844;57.126;24.288;2022-12-10T06:56:48;18.65;;;10.07;;
51780;SDS011;37844;57.126;24.288;2022-12-10T06:59:14;23.10;;;13.70;;
51780;SDS011;37844;57.126;24.288;2022-12-10T07:01:39;18.88;;;11.45;;
51780;SDS011;37844;57.126;24.288;2022-12-10T07:04:05;17.60;;;11.95;;
51780;SDS011;37844;57.126;24.288;2022-12-10T07:06:31;19.90;;;13.30;;
51780;SDS011;37844;57.126;24.288;2022-12-10T07:08:56;20.13;;;12.50;;
51780;SDS011;37844;57.126;24.288;2022-12-10T07:11:22;24.52;;;12.65;;
51780;SDS011;37844;57.126;24.288;2022-12-10T07:13:49;28.55;;;14.13;;
51780;SDS011;37844;57.126;24.288;2022-12-10T07:16:16;20.92;;;12.10;;
51780;SDS011;37844;57.126;24.288;2022-12-10T07:18:43;22.40;;;12.55;;
51780;SDS011;37844;57.126;24.288;2022-12-10T07:21:16;25.23;;;13.95;;
51780;SDS011;37844;57.126;24.288;2022-12-10T07:23:42;20.52;;;13.25;;
51780;SDS011;37844;57.126;24.288;2022-12-10T07:26:08;22.75;;;14.18;;
51780;SDS011;37844;57.126;24.288;2022-12-10T07:28:34;25.02;;;15.20;;
51780;SDS011;37844;57.126;24.288;2022-12-10T07:31:00;26.15;;;16.00;;
51780;SDS011;37844;57.126;24.288;2022-12-10T07:33:29;30.17;;;16.40;;
51780;SDS011;37844;57.126;24.288;2022-12-10T07:35:55;28.27;;;15.60;;
51780;SDS011;37844;57.126;24.288;2022-12-10T07:38:21;36.60;;;18.95;;
51780;SDS011;37844;57.126;24.288;2022-12-10T07:40:50;28.65;;;16.70;;
51780;SDS011;37844;57.126;24.288;2022-12-10T07:43:16;33.22;;;16.02;;
51780;SDS011;37844;57.126;24.288;2022-12-10T07:45:42;26.83;;;16.02;;
51780;SDS011;37844;57.126;24.288;2022-12-10T07:48:08;51.22;;;17.85;;
51780;SDS011;37844;57.126;24.288;2022-12-10T07:50:33;31.83;;;17.92;;
51780;SDS011;37844;57.126;24.288;2022-12-10T07:52:59;33.20;;;16.25;;
51780;SDS011;37844;57.126;24.288;2022-12-10T07:55:25;46.08;;;17.58;;
51780;SDS011;37844;57.126;24.288;2022-12-10T07:57:50;32.42;;;17.17;;
51780;SDS011;37844;57.126;24.288;2022-12-10T08:00:16;29.20;;;16.13;;
51780;SDS011;37844;57.126;24.288;2022-12-10T08:02:42;31.02;;;16.40;;
51780;SDS011;37844;57.126;24.288;2022-12-10T08:05:07;25.88;;;17.38;;
51780;SDS011;37844;57.126;24.288;2022-12-10T08:07:33;36.03;;;20.88;;
51780;SDS011;37844;57.126;24.288;2022-12-10T08:09:59;29.77;;;17.30;;
51780;SDS011;37844;57.126;24.288;2022-12-10T08:12:24;26.45;;;15.07;;
51780;SDS011;37844;57.126;24.288;2022-12-10T08:14:50;40.95;;;18.17;;
51780;SDS011;37844;57.126;24.288;2022-12-10T08:17:15;33.03;;;18.60;;
51780;SDS011;37844;57.126;24.288;2022-12-10T08:19:41;30.73;;;19.27;;
51780;SDS011;37844;57.126;24.288;2022-12-10T08:22:06;35.50;;;20.48;;
51780;SDS011;37844;57.126;24.288;2022-12-10T08:24:32;29.70;;;18.65;;
51780;SDS011;37844;57.126;24.288;2022-12-10T08:26:57;30.85;;;20.10;;
51780;SDS011;37844;57.126;24.288;2022-12-10T08:29:23;35.97;;;22.42;;
51780;SDS011;37844;57.126;24.288;2022-12-10T08:31:48;38.05;;;22.52;;
51780;SDS011;37844;57.126;24.288;2022-12-10T08:34:15;38.10;;;19.35;;
51780;SDS011;37844;57.126;24.288;2022-12-10T08:36:42;42.63;;;24.38;;
51780;SDS011;37844;57.126;24.288;2022-12-10T08:39:08;38.22;;;18.40;;
51780;SDS011;37844;57.126;24.288;2022-12-10T08:41:35;30.60;;;18.42;;
51780;SDS011;37844;57.126;24.288;2022-12-10T08:44:01;31.15;;;17.45;;
51780;SDS011;37844;57.126;24.288;2022-12-10T08:46:26;32.85;;;19.35;;
51780;SDS011;37844;57.126;24.288;2022-12-10T08:48:53;35.67;;;20.67;;
51780;SDS011;37844;57.126;24.288;2022-12-10T08:51:19;33.03;;;19.70;;
51780;SDS011;37844;57.126;24.288;2022-12-10T08:53:45;39.72;;;18.65;;
51780;SDS011;37844;57.126;24.288;2022-12-10T08:56:12;32.95;;;18.60;;
51780;SDS011;37844;57.126;24.288;2022-12-10T08:58:38;29.42;;;17.65;;
51780;SDS011;37844;57.126;24.288;2022-12-10T09:01:07;23.80;;;15.23;;
51780;SDS011;37844;57.126;24.288;2022-12-10T09:06:04;29.83;;;18.58;;
51780;SDS011;37844;57.126;24.288;2022-12-10T09:08:32;26.63;;;16.88;;
51780;SDS011;37844;57.126;24.288;2022-12-10T09:10:58;27.55;;;16.15;;
51780;SDS011;37844;57.126;24.288;2022-12-10T09:13:23;30.00;;;15.15;;
51780;SDS011;37844;57.126;24.288;2022-12-10T09:15:52;29.50;;;16.52;;
51780;SDS011;37844;57.126;24.288;2022-12-10T09:18:18;25.75;;;15.00;;
51780;SDS011;37844;57.126;24.288;2022-12-10T09:20:44;29.08;;;15.98;;
51780;SDS011;37844;57.126;24.288;2022-12-10T09:23:09;28.58;;;17.60;;
51780;SDS011;37844;57.126;24.288;2022-12-10T09:25:35;30.13;;;16.95;;
51780;SDS011;37844;57.126;24.288;2022-12-10T09:28:00;29.20;;;18.15;;
51780;SDS011;37844;57.126;24.288;2022-12-10T09:30:26;22.20;;;14.85;;
51780;SDS011;37844;57.126;24.288;2022-12-10T09:32:52;26.88;;;16.02;;
51780;SDS011;37844;57.126;24.288;2022-12-10T09:35:20;33.47;;;16.75;;
51780;SDS011;37844;57.126;24.288;2022-12-10T09:37:47;31.65;;;16.95;;
51780;SDS011;37844;57.126;24.288;2022-12-10T09:40:21;28.80;;;17.90;;
51780;SDS011;37844;57.126;24.288;2022-12-10T09:51:34;24.67;;;14.43;;
51780;SDS011;37844;57.126;24.288;2022-12-10T09:54:11;23.10;;;14.05;;
51780;SDS011;37844;57.126;24.288;2022-12-10T09:56:44;24.10;;;13.40;;
51780;SDS011;37844;57.126;24.288;2022-12-10T09:59:20;22.05;;;13.20;;
51780;SDS011;37844;57.126;24.288;2022-12-10T10:01:51;20.48;;;13.48;;
51780;SDS011;37844;57.126;24.288;2022-12-10T10:04:26;22.95;;;14.48;;
51780;SDS011;37844;57.126;24.288;2022-12-10T10:06:51;23.95;;;14.32;;
51780;SDS011;37844;57.126;24.288;2022-12-10T10:09:17;22.52;;;12.40;;
51780;SDS011;37844;57.126;24.288;2022-12-10T10:11:44;21.55;;;13.18;;
51780;SDS011;37844;57.126;24.288;2022-12-10T10:14:16;19.15;;;12.13;;
51780;SDS011;37844;57.126;24.288;2022-12-10T10:16:56;20.75;;;13.27;;
51780;SDS011;37844;57.126;24.288;2022-12-10T10:19:29;23.70;;;15.13;;
51780;SDS011;37844;57.126;24.288;2022-12-10T10:21:58;23.75;;;16.13;;
51780;SDS011;37844;57.126;24.288;2022-12-10T10:24:45;21.88;;;12.95;;
51780;SDS011;37844;57.126;24.288;2022-12-10T10:27:21;20.92;;;12.38;;
51780;SDS011;37844;57.126;24.288;2022-12-10T10:29:49;19.35;;;12.35;;
51780;SDS011;37844;57.126;24.288;2022-12-10T10:32:21;22.10;;;13.93;;
51780;SDS011;37844;57.126;24.288;2022-12-10T10:34:52;21.63;;;14.68;;
51780;SDS011;37844;57.126;24.288;2022-12-10T10:42:38;25.20;;;14.07;;
51780;SDS011;37844;57.126;24.288;2022-12-10T10:45:28;20.33;;;13.57;;
51780;SDS011;37844;57.126;24.288;2022-12-10T10:48:18;17.90;;;12.25;;
51780;SDS011;37844;57.126;24.288;2022-12-10T10:53:24;23.23;;;14.35;;
51780;SDS011;37844;57.126;24.288;2022-12-10T10:55:57;24.98;;;14.15;;
51780;SDS011;37844;57.126;24.288;2022-12-10T11:01:19;20.60;;;13.90;;
51780;SDS011;37844;57.126;24.288;2022-12-10T11:03:49;19.63;;;13.25;;
51780;SDS011;37844;57.126;24.288;2022-12-10T11:06:20;16.33;;;11.57;;
51780;SDS011;37844;57.126;24.288;2022-12-10T11:08:46;18.48;;;12.10;;
51780;SDS011;37844;57.126;24.288;2022-12-10T11:11:20;22.10;;;13.55;;
51780;SDS011;37844;57.126;24.288;2022-12-10T11:13:49;22.38;;;12.23;;
51780;SDS011;37844;57.126;24.288;2022-12-10T11:18:41;19.40;;;12.52;;
51780;SDS011;37844;57.126;24.288;2022-12-10T11:21:17;20.42;;;13.10;;
51780;SDS011;37844;57.126;24.288;2022-12-10T11:40:32;19.83;;;11.75;;
51780;SDS011;37844;57.126;24.288;2022-12-10T11:48:28;21.50;;;13.00;;
51780;SDS011;37844;57.126;24.288;2022-12-10T11:53:55;18.35;;;12.05;;
51780;SDS011;37844;57.126;24.288;2022-12-10T11:56:28;21.58;;;13.60;;
51780;SDS011;37844;57.126;24.288;2022-12-10T12:04:27;23.90;;;15.95;;
51780;SDS011;37844;57.126;24.288;2022-12-10T12:10:15;20.58;;;14.93;;
51780;SDS011;37844;57.126;24.288;2022-12-10T12:15:03;27.00;;;17.75;;
51780;SDS011;37844;57.126;24.288;2022-12-10T12:17:41;41.67;;;23.77;;
51780;SDS011;37844;57.126;24.288;2022-12-10T12:23:20;36.90;;;19.70;;
51780;SDS011;37844;57.126;24.288;2022-12-10T12:25:54;27.13;;;15.80;;
51780;SDS011;37844;57.126;24.288;2022-12-10T12:28:27;36.53;;;19.92;;
51780;SDS011;37844;57.126;24.288;2022-12-10T12:31:07;37.17;;;19.52;;
51780;SDS011;37844;57.126;24.288;2022-12-10T12:36:29;27.67;;;14.02;;
51780;SDS011;37844;57.126;24.288;2022-12-10T12:39:11;26.48;;;14.65;;
51780;SDS011;37844;57.126;24.288;2022-12-10T12:42:06;18.20;;;12.10;;
51780;SDS011;37844;57.126;24.288;2022-12-10T12:47:48;18.38;;;11.13;;
51780;SDS011;37844;57.126;24.288;2022-12-10T12:53:23;26.33;;;16.00;;
51780;SDS011;37844;57.126;24.288;2022-12-10T12:59:01;24.38;;;13.60;;
51780;SDS011;37844;57.126;24.288;2022-12-10T13:01:52;20.10;;;13.23;;
51780;SDS011;37844;57.126;24.288;2022-12-10T13:04:22;26.50;;;12.68;;
51780;SDS011;37844;57.126;24.288;2022-12-10T13:09:43;16.73;;;11.25;;
51780;SDS011;37844;57.126;24.288;2022-12-10T13:20:32;16.98;;;10.52;;
51780;SDS011;37844;57.126;24.288;2022-12-10T13:23:04;16.20;;;11.00;;
51780;SDS011;37844;57.126;24.288;2022-12-10T13:28:32;17.13;;;11.15;;
51780;SDS011;37844;57.126;24.288;2022-12-10T13:36:11;17.10;;;9.10;;
51780;SDS011;37844;57.126;24.288;2022-12-10T13:38:54;14.57;;;9.13;;
51780;SDS011;37844;57.126;24.288;2022-12-10T13:41:32;16.85;;;11.25;;
51780;SDS011;37844;57.126;24.288;2022-12-10T13:49:57;15.95;;;10.18;;
51780;SDS011;37844;57.126;24.288;2022-12-10T14:00:58;15.68;;;10.57;;
51780;SDS011;37844;57.126;24.288;2022-12-10T14:03:43;16.08;;;10.35;;
51780;SDS011;37844;57.126;24.288;2022-12-10T14:06:32;17.27;;;10.52;;
51780;SDS011;37844;57.126;24.288;2022-12-10T14:09:05;15.98;;;10.90;;
51780;SDS011;37844;57.126;24.288;2022-12-10T14:11:56;15.93;;;11.43;;
51780;SDS011;37844;57.126;24.288;2022-12-10T14:14:36;16.38;;;10.75;;
51780;SDS011;37844;57.126;24.288;2022-12-10T14:17:12;22.25;;;11.35;;
51780;SDS011;37844;57.126;24.288;2022-12-10T14:19:41;14.88;;;11.13;;
51780;SDS011;37844;57.126;24.288;2022-12-10T14:22:08;18.80;;;12.10;;
51780;SDS011;37844;57.126;24.288;2022-12-10T14:24:41;18.15;;;12.43;;
51780;SDS011;37844;57.126;24.288;2022-12-10T14:27:24;23.17;;;14.30;;
51780;SDS011;37844;57.126;24.288;2022-12-10T14:29:59;31.08;;;15.98;;
51780;SDS011;37844;57.126;24.288;2022-12-10T14:32:29;25.40;;;14.02;;
51780;SDS011;37844;57.126;24.288;2022-12-10T14:34:59;29.42;;;17.23;;
51780;SDS011;37844;57.126;24.288;2022-12-10T14:37:26;26.55;;;15.27;;
51780;SDS011;37844;57.126;24.288;2022-12-10T14:39:54;42.95;;;21.05;;
51780;SDS011;37844;57.126;24.288;2022-12-10T14:42:26;37.28;;;20.45;;
51780;SDS011;37844;57.126;24.288;2022-12-10T14:44:59;41.83;;;21.13;;
51780;SDS011;37844;57.126;24.288;2022-12-10T14:47:31;38.13;;;21.40;;
51780;SDS011;37844;57.126;24.288;2022-12-10T14:50:00;40.28;;;21.98;;
51780;SDS011;37844;57.126;24.288;2022-12-10T14:52:32;38.65;;;20.60;;
51780;SDS011;37844;57.126;24.288;2022-12-10T14:55:04;38.60;;;20.55;;
51780;SDS011;37844;57.126;24.288;2022-12-10T14:57:31;28.75;;;15.73;;
51780;SDS011;37844;57.126;24.288;2022-12-10T15:00:13;30.27;;;17.02;;
51780;SDS011;37844;57.126;24.288;2022-12-10T15:02:45;23.55;;;14.43;;
51780;SDS011;37844;57.126;24.288;2022-12-10T15:05:18;24.08;;;13.35;;
51780;SDS011;37844;57.126;24.288;2022-12-10T15:07:52;22.45;;;15.20;;
51780;SDS011;37844;57.126;24.288;2022-12-10T15:10:28;24.00;;;14.32;;
51780;SDS011;37844;57.126;24.288;2022-12-10T15:12:58;29.90;;;17.90;;
51780;SDS011;37844;57.126;24.288;2022-12-10T15:17:57;34.40;;;17.67;;
51780;SDS011;37844;57.126;24.288;2022-12-10T15:20:25;28.77;;;17.80;;
51780;SDS011;37844;57.126;24.288;2022-12-10T15:22:54;25.52;;;15.95;;
51780;SDS011;37844;57.126;24.288;2022-12-10T15:25:25;24.80;;;14.90;;
51780;SDS011;37844;57.126;24.288;2022-12-10T15:27:57;23.60;;;15.32;;
51780;SDS011;37844;57.126;24.288;2022-12-10T15:30:35;26.02;;;16.05;;
51780;SDS011;37844;57.126;24.288;2022-12-10T15:33:04;35.83;;;18.10;;
51780;SDS011;37844;57.126;24.288;2022-12-10T15:35:46;38.28;;;19.48;;
51780;SDS011;37844;57.126;24.288;2022-12-10T15:38:12;38.35;;;21.10;;
51780;SDS011;37844;57.126;24.288;2022-12-10T15:40:38;48.65;;;22.55;;
51780;SDS011;37844;57.126;24.288;2022-12-10T15:43:37;41.88;;;20.35;;
51780;SDS011;37844;57.126;24.288;2022-12-10T15:45:56;35.47;;;20.48;;
51780;SDS011;37844;57.126;24.288;2022-12-10T15:48:23;32.40;;;19.45;;
51780;SDS011;37844;57.126;24.288;2022-12-10T15:50:51;33.33;;;18.02;;
51780;SDS011;37844;57.126;24.288;2022-12-10T15:53:27;27.38;;;17.77;;
51780;SDS011;37844;57.126;24.288;2022-12-10T15:56:00;24.75;;;15.60;;
51780;SDS011;37844;57.126;24.288;2022-12-10T15:58:26;26.63;;;15.27;;
51780;SDS011;37844;57.126;24.288;2022-12-10T16:00:52;25.67;;;14.20;;
51780;SDS011;37844;57.126;24.288;2022-12-10T16:03:17;27.52;;;16.55;;
51780;SDS011;37844;57.126;24.288;2022-12-10T16:05:44;28.13;;;15.60;;
51780;SDS011;37844;57.126;24.288;2022-12-10T16:08:21;29.08;;;17.58;;
51780;SDS011;37844;57.126;24.288;2022-12-10T16:10:49;28.95;;;18.55;;
51780;SDS011;37844;57.126;24.288;2022-12-10T16:13:17;28.10;;;18.77;;
51780;SDS011;37844;57.126;24.288;2022-12-10T16:15:50;29.40;;;18.80;;
51780;SDS011;37844;57.126;24.288;2022-12-10T16:18:22;31.35;;;19.10;;
51780;SDS011;37844;57.126;24.288;2022-12-10T16:20:48;35.03;;;20.48;;
51780;SDS011;37844;57.126;24.288;2022-12-10T16:23:14;32.00;;;19.98;;
51780;SDS011;37844;57.126;24.288;2022-12-10T16:25:40;31.02;;;17.50;;
51780;SDS011;37844;57.126;24.288;2022-12-10T16:28:10;25.42;;;14.73;;
51780;SDS011;37844;57.126;24.288;2022-12-10T16:30:40;26.23;;;15.68;;
51780;SDS011;37844;57.126;24.288;2022-12-10T16:33:09;23.63;;;14.48;;
51780;SDS011;37844;57.126;24.288;2022-12-10T16:35:34;25.60;;;16.67;;
51780;SDS011;37844;57.126;24.288;2022-12-10T16:38:00;22.38;;;13.57;;
51780;SDS011;37844;57.126;24.288;2022-12-10T16:40:26;22.15;;;13.73;;